sensor_id;sensor_type;location;lat;lon;timestamp;P1;durP1;ratioP1;P2;durP2;ratioP2
41343;SDS011;27089;50.022;7.604;2024-01-06T00:00:09;3.53;;;1.57;;
41343;SDS011;27089;50.022;7.604;2024-01-06T00:02:36;5.67;;;1.70;;
41343;SDS011;27089;50.022;7.604;2024-01-06T00:05:04;4.53;;;1.83;;
41343;SDS011;27089;50.022;7.604;2024-01-06T00:07:31;3.00;;;1.50;;
41343;SDS011;27089;50.022;7.604;2024-01-06T00:09:58;3.90;;;1.30;;
41343;SDS011;27089;50.022;7.604;2024-01-06T00:12:25;5.67;;;1.20;;
41343;SDS011;27089;50.022;7.604;2024-01-06T00:14:52;4.70;;;1.23;;
41343;SDS011;27089;50.022;7.604;2024-01-06T00:17:20;3.70;;;1.40;;
41343;SDS011;27089;50.022;7.604;2024-01-06T00:19:47;6.43;;;1.30;;
41343;SDS011;27089;50.022;7.604;2024-01-06T00:22:16;4.93;;;1.40;;
41343;SDS011;27089;50.022;7.604;2024-01-06T00:24:43;4.63;;;1.50;;
41343;SDS011;27089;50.022;7.604;2024-01-06T00:27:10;3.20;;;1.30;;
41343;SDS011;27089;50.022;7.604;2024-01-06T00:29:37;1.60;;;1.10;;
41343;SDS011;27089;50.022;7.604;2024-01-06T00:32:04;4.43;;;1.40;;
41343;SDS011;27089;50.022;7.604;2024-01-06T00:34:33;3.77;;;1.50;;
41343;SDS011;27089;50.022;7.604;2024-01-06T00:37:00;2.90;;;1.50;;
41343;SDS011;27089;50.022;7.604;2024-01-06T00:39:27;2.83;;;1.30;;
41343;SDS011;27089;50.022;7.604;2024-01-06T00:41:54;2.87;;;1.60;;
41343;SDS011;27089;50.022;7.604;2024-01-06T00:44:21;5.40;;;1.73;;
41343;SDS011;27089;50.022;7.604;2024-01-06T00:46:48;4.30;;;1.30;;
41343;SDS011;27089;50.022;7.604;2024-01-06T00:49:15;3.87;;;1.40;;
41343;SDS011;27089;50.022;7.604;2024-01-06T00:51:43;3.53;;;1.37;;
41343;SDS011;27089;50.022;7.604;2024-01-06T00:54:10;5.63;;;1.73;;
41343;SDS011;27089;50.022;7.604;2024-01-06T00:56:37;2.23;;;1.30;;
41343;SDS011;27089;50.022;7.604;2024-01-06T00:59:07;3.60;;;1.40;;
41343;SDS011;27089;50.022;7.604;2024-01-06T01:01:34;6.77;;;1.77;;
41343;SDS011;27089;50.022;7.604;2024-01-06T01:04:01;3.83;;;1.30;;
41343;SDS011;27089;50.022;7.604;2024-01-06T01:06:28;5.20;;;1.43;;
41343;SDS011;27089;50.022;7.604;2024-01-06T01:08:56;2.63;;;1.40;;
41343;SDS011;27089;50.022;7.604;2024-01-06T01:11:23;3.23;;;1.57;;
41343;SDS011;27089;50.022;7.604;2024-01-06T01:13:51;3.93;;;1.47;;
41343;SDS011;27089;50.022;7.604;2024-01-06T01:16:17;4.07;;;1.50;;
41343;SDS011;27089;50.022;7.604;2024-01-06T01:18:44;4.93;;;1.40;;
41343;SDS011;27089;50.022;7.604;2024-01-06T01:21:12;2.00;;;1.40;;
41343;SDS011;27089;50.022;7.604;2024-01-06T01:23:38;3.00;;;1.60;;
41343;SDS011;27089;50.022;7.604;2024-01-06T01:26:07;2.20;;;1.40;;
41343;SDS011;27089;50.022;7.604;2024-01-06T01:28:34;3.07;;;1.57;;
41343;SDS011;27089;50.022;7.604;2024-01-06T01:31:02;6.10;;;1.63;;
41343;SDS011;27089;50.022;7.604;2024-01-06T01:33:29;4.30;;;1.50;;
41343;SDS011;27089;50.022;7.604;2024-01-06T01:35:56;1.67;;;1.37;;
41343;SDS011;27089;50.022;7.604;2024-01-06T01:38:23;2.90;;;1.70;;
41343;SDS011;27089;50.022;7.604;2024-01-06T01:40:50;2.23;;;1.37;;
41343;SDS011;27089;50.022;7.604;2024-01-06T01:43:18;4.67;;;1.43;;
41343;SDS011;27089;50.022;7.604;2024-01-06T01:45:48;3.73;;;1.63;;
41343;SDS011;27089;50.022;7.604;2024-01-06T01:48:17;2.87;;;1.50;;
41343;SDS011;27089;50.022;7.604;2024-01-06T01:50:45;4.27;;;1.93;;
41343;SDS011;27089;50.022;7.604;2024-01-06T01:53:12;3.13;;;1.30;;
41343;SDS011;27089;50.022;7.604;2024-01-06T01:55:40;3.33;;;1.57;;
41343;SDS011;27089;50.022;7.604;2024-01-06T01:58:09;4.63;;;1.77;;
41343;SDS011;27089;50.022;7.604;2024-01-06T02:00:37;2.20;;;1.40;;
41343;SDS011;27089;50.022;7.604;2024-01-06T02:03:05;3.43;;;1.77;;
41343;SDS011;27089;50.022;7.604;2024-01-06T02:05:32;1.97;;;1.37;;
41343;SDS011;27089;50.022;7.604;2024-01-06T02:07:59;4.10;;;1.53;;
41343;SDS011;27089;50.022;7.604;2024-01-06T02:10:26;4.83;;;1.33;;
41343;SDS011;27089;50.022;7.604;2024-01-06T02:12:54;4.70;;;1.50;;
41343;SDS011;27089;50.022;7.604;2024-01-06T02:15:21;3.40;;;1.40;;
41343;SDS011;27089;50.022;7.604;2024-01-06T02:17:50;4.17;;;1.60;;
41343;SDS011;27089;50.022;7.604;2024-01-06T02:20:16;5.70;;;1.90;;
41343;SDS011;27089;50.022;7.604;2024-01-06T02:22:47;5.53;;;2.20;;
41343;SDS011;27089;50.022;7.604;2024-01-06T02:25:14;3.30;;;1.63;;
41343;SDS011;27089;50.022;7.604;2024-01-06T02:27:41;3.07;;;1.70;;
41343;SDS011;27089;50.022;7.604;2024-01-06T02:30:08;4.13;;;1.43;;
41343;SDS011;27089;50.022;7.604;2024-01-06T02:32:36;1.87;;;1.40;;
41343;SDS011;27089;50.022;7.604;2024-01-06T02:35:03;4.27;;;1.40;;
41343;SDS011;27089;50.022;7.604;2024-01-06T02:37:30;3.00;;;1.73;;
41343;SDS011;27089;50.022;7.604;2024-01-06T02:39:58;1.87;;;1.50;;
41343;SDS011;27089;50.022;7.604;2024-01-06T02:42:25;3.60;;;1.70;;
41343;SDS011;27089;50.022;7.604;2024-01-06T02:44:52;3.80;;;1.67;;
41343;SDS011;27089;50.022;7.604;2024-01-06T02:47:19;2.13;;;1.40;;
41343;SDS011;27089;50.022;7.604;2024-01-06T02:49:46;4.23;;;1.77;;
41343;SDS011;27089;50.022;7.604;2024-01-06T02:52:13;4.47;;;1.70;;
41343;SDS011;27089;50.022;7.604;2024-01-06T02:54:40;3.10;;;1.90;;
41343;SDS011;27089;50.022;7.604;2024-01-06T02:57:08;2.67;;;1.30;;
41343;SDS011;27089;50.022;7.604;2024-01-06T02:59:38;2.63;;;1.37;;
41343;SDS011;27089;50.022;7.604;2024-01-06T03:02:05;2.63;;;1.40;;
41343;SDS011;27089;50.022;7.604;2024-01-06T03:04:32;2.70;;;1.30;;
41343;SDS011;27089;50.022;7.604;2024-01-06T03:06:59;2.53;;;1.30;;
41343;SDS011;27089;50.022;7.604;2024-01-06T03:09:26;6.17;;;1.80;;
41343;SDS011;27089;50.022;7.604;2024-01-06T03:11:53;4.47;;;1.57;;
41343;SDS011;27089;50.022;7.604;2024-01-06T03:14:22;4.57;;;1.60;;
41343;SDS011;27089;50.022;7.604;2024-01-06T03:16:49;4.93;;;1.60;;
41343;SDS011;27089;50.022;7.604;2024-01-06T03:19:16;1.87;;;1.40;;
41343;SDS011;27089;50.022;7.604;2024-01-06T03:21:43;3.47;;;1.40;;
41343;SDS011;27089;50.022;7.604;2024-01-06T03:24:10;5.30;;;1.63;;
41343;SDS011;27089;50.022;7.604;2024-01-06T03:26:37;2.67;;;1.87;;
41343;SDS011;27089;50.022;7.604;2024-01-06T03:29:04;2.17;;;1.37;;
41343;SDS011;27089;50.022;7.604;2024-01-06T03:31:32;2.53;;;1.40;;
41343;SDS011;27089;50.022;7.604;2024-01-06T03:33:59;5.03;;;2.03;;
41343;SDS011;27089;50.022;7.604;2024-01-06T03:36:26;2.73;;;1.53;;
41343;SDS011;27089;50.022;7.604;2024-01-06T03:38:53;3.23;;;1.90;;
41343;SDS011;27089;50.022;7.604;2024-01-06T03:41:21;3.40;;;1.70;;
41343;SDS011;27089;50.022;7.604;2024-01-06T03:43:47;2.63;;;1.43;;
41343;SDS011;27089;50.022;7.604;2024-01-06T03:46:14;3.63;;;1.57;;
41343;SDS011;27089;50.022;7.604;2024-01-06T03:48:43;2.27;;;1.60;;
41343;SDS011;27089;50.022;7.604;2024-01-06T03:51:10;4.67;;;1.80;;
41343;SDS011;27089;50.022;7.604;2024-01-06T03:53:38;2.90;;;1.60;;
41343;SDS011;27089;50.022;7.604;2024-01-06T03:56:06;4.33;;;2.23;;
41343;SDS011;27089;50.022;7.604;2024-01-06T03:58:33;3.00;;;1.80;;
41343;SDS011;27089;50.022;7.604;2024-01-06T04:01:00;3.93;;;1.90;;
41343;SDS011;27089;50.022;7.604;2024-01-06T04:03:27;2.87;;;1.83;;
41343;SDS011;27089;50.022;7.604;2024-01-06T04:05:55;3.23;;;1.80;;
41343;SDS011;27089;50.022;7.604;2024-01-06T04:08:22;4.37;;;2.03;;
41343;SDS011;27089;50.022;7.604;2024-01-06T04:10:49;3.53;;;1.90;;
41343;SDS011;27089;50.022;7.604;2024-01-06T04:13:16;4.07;;;2.30;;
41343;SDS011;27089;50.022;7.604;2024-01-06T04:15:43;4.10;;;2.10;;
41343;SDS011;27089;50.022;7.604;2024-01-06T04:18:10;3.07;;;2.00;;
41343;SDS011;27089;50.022;7.604;2024-01-06T04:20:37;3.20;;;2.00;;
41343;SDS011;27089;50.022;7.604;2024-01-06T04:23:05;2.20;;;2.00;;
41343;SDS011;27089;50.022;7.604;2024-01-06T04:25:32;3.90;;;2.50;;
41343;SDS011;27089;50.022;7.604;2024-01-06T04:27:59;5.10;;;2.70;;
41343;SDS011;27089;50.022;7.604;2024-01-06T04:30:26;4.23;;;2.47;;
41343;SDS011;27089;50.022;7.604;2024-01-06T04:32:53;3.90;;;2.10;;
41343;SDS011;27089;50.022;7.604;2024-01-06T04:35:21;4.23;;;1.90;;
41343;SDS011;27089;50.022;7.604;2024-01-06T04:37:48;2.87;;;1.90;;
41343;SDS011;27089;50.022;7.604;2024-01-06T04:40:17;3.27;;;1.83;;
41343;SDS011;27089;50.022;7.604;2024-01-06T04:42:44;3.07;;;1.83;;
41343;SDS011;27089;50.022;7.604;2024-01-06T04:45:11;2.93;;;2.13;;
41343;SDS011;27089;50.022;7.604;2024-01-06T04:47:38;3.23;;;1.90;;
41343;SDS011;27089;50.022;7.604;2024-01-06T04:50:05;3.27;;;1.93;;
41343;SDS011;27089;50.022;7.604;2024-01-06T04:52:32;2.87;;;1.80;;
41343;SDS011;27089;50.022;7.604;2024-01-06T04:54:59;4.23;;;2.03;;
41343;SDS011;27089;50.022;7.604;2024-01-06T04:57:28;1.87;;;1.73;;
41343;SDS011;27089;50.022;7.604;2024-01-06T04:59:56;3.43;;;2.00;;
41343;SDS011;27089;50.022;7.604;2024-01-06T05:02:23;4.13;;;2.20;;
41343;SDS011;27089;50.022;7.604;2024-01-06T05:04:50;2.50;;;1.90;;
41343;SDS011;27089;50.022;7.604;2024-01-06T05:07:17;3.30;;;2.00;;
41343;SDS011;27089;50.022;7.604;2024-01-06T05:09:44;4.23;;;2.17;;
41343;SDS011;27089;50.022;7.604;2024-01-06T05:12:11;2.23;;;1.90;;
41343;SDS011;27089;50.022;7.604;2024-01-06T05:14:39;3.33;;;2.30;;
41343;SDS011;27089;50.022;7.604;2024-01-06T05:17:06;3.67;;;1.73;;
41343;SDS011;27089;50.022;7.604;2024-01-06T05:19:34;2.97;;;1.80;;
41343;SDS011;27089;50.022;7.604;2024-01-06T05:22:01;3.17;;;1.97;;
41343;SDS011;27089;50.022;7.604;2024-01-06T05:24:28;4.33;;;2.00;;
41343;SDS011;27089;50.022;7.604;2024-01-06T05:26:55;3.17;;;2.40;;
41343;SDS011;27089;50.022;7.604;2024-01-06T05:29:22;3.23;;;2.57;;
41343;SDS011;27089;50.022;7.604;2024-01-06T05:31:52;3.90;;;2.60;;
41343;SDS011;27089;50.022;7.604;2024-01-06T05:34:19;4.03;;;2.47;;
41343;SDS011;27089;50.022;7.604;2024-01-06T05:36:47;4.27;;;2.50;;
41343;SDS011;27089;50.022;7.604;2024-01-06T05:39:14;5.20;;;2.90;;
41343;SDS011;27089;50.022;7.604;2024-01-06T05:41:41;3.70;;;2.70;;
41343;SDS011;27089;50.022;7.604;2024-01-06T05:44:08;3.70;;;2.60;;
41343;SDS011;27089;50.022;7.604;2024-01-06T05:46:36;6.63;;;2.67;;
41343;SDS011;27089;50.022;7.604;2024-01-06T05:49:04;3.43;;;2.63;;
41343;SDS011;27089;50.022;7.604;2024-01-06T05:51:31;4.10;;;3.10;;
41343;SDS011;27089;50.022;7.604;2024-01-06T05:53:58;6.37;;;4.30;;
41343;SDS011;27089;50.022;7.604;2024-01-06T05:56:25;6.77;;;4.27;;
41343;SDS011;27089;50.022;7.604;2024-01-06T05:58:53;7.30;;;3.67;;
41343;SDS011;27089;50.022;7.604;2024-01-06T06:01:20;8.50;;;4.77;;
41343;SDS011;27089;50.022;7.604;2024-01-06T06:03:47;5.00;;;3.97;;
41343;SDS011;27089;50.022;7.604;2024-01-06T06:06:16;6.20;;;3.47;;
41343;SDS011;27089;50.022;7.604;2024-01-06T06:08:43;7.97;;;3.70;;
41343;SDS011;27089;50.022;7.604;2024-01-06T06:11:10;12.23;;;7.77;;
41343;SDS011;27089;50.022;7.604;2024-01-06T06:13:38;17.73;;;9.30;;
41343;SDS011;27089;50.022;7.604;2024-01-06T06:16:06;10.53;;;6.63;;
41343;SDS011;27089;50.022;7.604;2024-01-06T06:18:33;9.60;;;5.80;;
41343;SDS011;27089;50.022;7.604;2024-01-06T06:21:00;7.63;;;5.50;;
41343;SDS011;27089;50.022;7.604;2024-01-06T06:23:27;5.80;;;4.73;;
41343;SDS011;27089;50.022;7.604;2024-01-06T06:25:55;7.70;;;4.83;;
41343;SDS011;27089;50.022;7.604;2024-01-06T06:28:21;6.50;;;4.40;;
41343;SDS011;27089;50.022;7.604;2024-01-06T06:30:48;4.33;;;3.57;;
41343;SDS011;27089;50.022;7.604;2024-01-06T06:33:15;5.03;;;3.90;;
41343;SDS011;27089;50.022;7.604;2024-01-06T06:35:42;5.47;;;3.47;;
41343;SDS011;27089;50.022;7.604;2024-01-06T06:38:09;5.17;;;3.57;;
41343;SDS011;27089;50.022;7.604;2024-01-06T06:40:38;6.73;;;3.50;;
41343;SDS011;27089;50.022;7.604;2024-01-06T06:43:05;5.87;;;3.33;;
41343;SDS011;27089;50.022;7.604;2024-01-06T06:45:33;5.50;;;3.93;;
41343;SDS011;27089;50.022;7.604;2024-01-06T06:48:00;6.93;;;3.53;;
41343;SDS011;27089;50.022;7.604;2024-01-06T06:50:27;4.40;;;3.30;;
41343;SDS011;27089;50.022;7.604;2024-01-06T06:52:54;6.53;;;3.50;;
41343;SDS011;27089;50.022;7.604;2024-01-06T06:55:21;4.87;;;4.00;;
41343;SDS011;27089;50.022;7.604;2024-01-06T06:57:49;7.17;;;4.20;;
41343;SDS011;27089;50.022;7.604;2024-01-06T07:00:17;6.40;;;4.57;;
41343;SDS011;27089;50.022;7.604;2024-01-06T07:02:44;6.07;;;4.80;;
41343;SDS011;27089;50.022;7.604;2024-01-06T07:05:11;7.13;;;5.23;;
41343;SDS011;27089;50.022;7.604;2024-01-06T07:07:38;7.50;;;4.73;;
41343;SDS011;27089;50.022;7.604;2024-01-06T07:10:06;6.30;;;4.97;;
41343;SDS011;27089;50.022;7.604;2024-01-06T07:12:34;7.73;;;5.33;;
41343;SDS011;27089;50.022;7.604;2024-01-06T07:15:02;7.90;;;5.63;;
41343;SDS011;27089;50.022;7.604;2024-01-06T07:17:29;9.47;;;5.37;;
41343;SDS011;27089;50.022;7.604;2024-01-06T07:19:56;6.47;;;5.00;;
41343;SDS011;27089;50.022;7.604;2024-01-06T07:22:23;10.40;;;7.97;;
41343;SDS011;27089;50.022;7.604;2024-01-06T07:24:50;6.97;;;5.30;;
41343;SDS011;27089;50.022;7.604;2024-01-06T07:27:17;6.67;;;4.90;;
41343;SDS011;27089;50.022;7.604;2024-01-06T07:29:45;5.43;;;4.60;;
41343;SDS011;27089;50.022;7.604;2024-01-06T07:32:13;8.77;;;5.13;;
41343;SDS011;27089;50.022;7.604;2024-01-06T07:34:40;5.93;;;4.37;;
41343;SDS011;27089;50.022;7.604;2024-01-06T07:37:08;6.43;;;4.87;;
41343;SDS011;27089;50.022;7.604;2024-01-06T07:39:35;6.23;;;4.47;;
41343;SDS011;27089;50.022;7.604;2024-01-06T07:42:02;6.30;;;4.97;;
41343;SDS011;27089;50.022;7.604;2024-01-06T07:44:29;5.40;;;3.67;;
41343;SDS011;27089;50.022;7.604;2024-01-06T07:46:56;5.17;;;3.93;;
41343;SDS011;27089;50.022;7.604;2024-01-06T07:49:25;6.37;;;4.90;;
41343;SDS011;27089;50.022;7.604;2024-01-06T07:51:52;6.83;;;4.10;;
41343;SDS011;27089;50.022;7.604;2024-01-06T07:54:19;8.30;;;4.83;;
41343;SDS011;27089;50.022;7.604;2024-01-06T07:56:46;14.37;;;8.80;;
41343;SDS011;27089;50.022;7.604;2024-01-06T07:59:13;29.70;;;16.60;;
41343;SDS011;27089;50.022;7.604;2024-01-06T08:01:40;22.00;;;15.17;;
41343;SDS011;27089;50.022;7.604;2024-01-06T08:04:08;9.97;;;6.20;;
41343;SDS011;27089;50.022;7.604;2024-01-06T08:06:36;7.70;;;6.50;;
41343;SDS011;27089;50.022;7.604;2024-01-06T08:09:03;8.67;;;6.23;;
41343;SDS011;27089;50.022;7.604;2024-01-06T08:11:31;6.73;;;4.33;;
41343;SDS011;27089;50.022;7.604;2024-01-06T08:13:58;4.87;;;3.80;;
41343;SDS011;27089;50.022;7.604;2024-01-06T08:16:25;4.00;;;3.60;;
41343;SDS011;27089;50.022;7.604;2024-01-06T08:18:52;5.80;;;3.80;;
41343;SDS011;27089;50.022;7.604;2024-01-06T08:21:19;5.50;;;3.77;;
41343;SDS011;27089;50.022;7.604;2024-01-06T08:23:47;4.17;;;3.60;;
41343;SDS011;27089;50.022;7.604;2024-01-06T08:26:14;6.40;;;4.37;;
41343;SDS011;27089;50.022;7.604;2024-01-06T08:28:41;6.77;;;4.77;;
41343;SDS011;27089;50.022;7.604;2024-01-06T08:31:08;8.23;;;5.77;;
41343;SDS011;27089;50.022;7.604;2024-01-06T08:33:35;6.37;;;4.73;;
41343;SDS011;27089;50.022;7.604;2024-01-06T08:36:02;4.53;;;4.00;;
41343;SDS011;27089;50.022;7.604;2024-01-06T08:38:30;6.57;;;4.63;;
41343;SDS011;27089;50.022;7.604;2024-01-06T08:40:58;11.47;;;8.20;;
41343;SDS011;27089;50.022;7.604;2024-01-06T08:43:25;15.60;;;10.57;;
41343;SDS011;27089;50.022;7.604;2024-01-06T08:45:52;9.37;;;7.00;;
41343;SDS011;27089;50.022;7.604;2024-01-06T08:48:19;21.30;;;11.40;;
41343;SDS011;27089;50.022;7.604;2024-01-06T08:50:47;23.00;;;14.33;;
41343;SDS011;27089;50.022;7.604;2024-01-06T08:53:15;18.17;;;11.97;;
41343;SDS011;27089;50.022;7.604;2024-01-06T08:55:42;15.60;;;11.10;;
41343;SDS011;27089;50.022;7.604;2024-01-06T08:58:10;17.37;;;10.87;;
41343;SDS011;27089;50.022;7.604;2024-01-06T09:00:37;8.60;;;6.37;;
41343;SDS011;27089;50.022;7.604;2024-01-06T09:03:04;11.70;;;8.20;;
41343;SDS011;27089;50.022;7.604;2024-01-06T09:05:32;9.77;;;6.20;;
41343;SDS011;27089;50.022;7.604;2024-01-06T09:07:59;10.53;;;7.03;;
41343;SDS011;27089;50.022;7.604;2024-01-06T09:10:26;6.33;;;4.60;;
41343;SDS011;27089;50.022;7.604;2024-01-06T09:12:54;5.60;;;4.23;;
41343;SDS011;27089;50.022;7.604;2024-01-06T09:15:23;8.17;;;5.17;;
41343;SDS011;27089;50.022;7.604;2024-01-06T09:17:50;5.23;;;4.67;;
41343;SDS011;27089;50.022;7.604;2024-01-06T09:20:18;9.23;;;6.73;;
41343;SDS011;27089;50.022;7.604;2024-01-06T09:22:48;6.30;;;5.50;;
41343;SDS011;27089;50.022;7.604;2024-01-06T09:25:15;5.10;;;3.60;;
41343;SDS011;27089;50.022;7.604;2024-01-06T09:27:42;6.17;;;5.37;;
41343;SDS011;27089;50.022;7.604;2024-01-06T09:30:09;5.67;;;4.83;;
41343;SDS011;27089;50.022;7.604;2024-01-06T09:32:38;7.23;;;5.37;;
41343;SDS011;27089;50.022;7.604;2024-01-06T09:35:06;11.00;;;6.43;;
41343;SDS011;27089;50.022;7.604;2024-01-06T09:37:33;10.37;;;6.67;;
41343;SDS011;27089;50.022;7.604;2024-01-06T09:40:00;19.07;;;11.77;;
41343;SDS011;27089;50.022;7.604;2024-01-06T09:42:27;8.97;;;6.47;;
41343;SDS011;27089;50.022;7.604;2024-01-06T09:44:54;6.93;;;4.20;;
41343;SDS011;27089;50.022;7.604;2024-01-06T09:47:22;5.23;;;3.90;;
41343;SDS011;27089;50.022;7.604;2024-01-06T09:49:53;5.03;;;3.97;;
41343;SDS011;27089;50.022;7.604;2024-01-06T09:52:24;6.10;;;3.80;;
41343;SDS011;27089;50.022;7.604;2024-01-06T09:54:53;4.47;;;3.53;;
41343;SDS011;27089;50.022;7.604;2024-01-06T09:57:20;5.40;;;3.30;;
41343;SDS011;27089;50.022;7.604;2024-01-06T09:59:47;3.83;;;3.30;;
41343;SDS011;27089;50.022;7.604;2024-01-06T10:02:15;4.23;;;3.80;;
41343;SDS011;27089;50.022;7.604;2024-01-06T10:04:43;4.77;;;3.20;;
41343;SDS011;27089;50.022;7.604;2024-01-06T10:07:12;3.70;;;3.10;;
41343;SDS011;27089;50.022;7.604;2024-01-06T10:09:40;4.03;;;3.10;;
41343;SDS011;27089;50.022;7.604;2024-01-06T10:12:07;5.37;;;3.50;;
41343;SDS011;27089;50.022;7.604;2024-01-06T10:14:34;4.53;;;3.80;;
41343;SDS011;27089;50.022;7.604;2024-01-06T10:17:02;4.00;;;3.30;;
41343;SDS011;27089;50.022;7.604;2024-01-06T10:19:33;5.57;;;4.53;;
41343;SDS011;27089;50.022;7.604;2024-01-06T10:22:00;8.50;;;5.87;;
41343;SDS011;27089;50.022;7.604;2024-01-06T10:24:29;5.10;;;4.13;;
41343;SDS011;27089;50.022;7.604;2024-01-06T10:26:57;4.30;;;3.73;;
41343;SDS011;27089;50.022;7.604;2024-01-06T10:29:24;5.43;;;4.00;;
41343;SDS011;27089;50.022;7.604;2024-01-06T10:31:52;5.67;;;4.50;;
41343;SDS011;27089;50.022;7.604;2024-01-06T10:34:20;5.47;;;4.60;;
41343;SDS011;27089;50.022;7.604;2024-01-06T10:36:48;4.37;;;3.57;;
41343;SDS011;27089;50.022;7.604;2024-01-06T10:39:17;3.70;;;3.07;;
41343;SDS011;27089;50.022;7.604;2024-01-06T10:41:45;3.80;;;3.30;;
41343;SDS011;27089;50.022;7.604;2024-01-06T10:44:14;3.13;;;2.80;;
41343;SDS011;27089;50.022;7.604;2024-01-06T10:46:42;3.93;;;2.87;;
41343;SDS011;27089;50.022;7.604;2024-01-06T10:49:10;5.20;;;3.33;;
41343;SDS011;27089;50.022;7.604;2024-01-06T10:51:38;3.47;;;2.73;;
41343;SDS011;27089;50.022;7.604;2024-01-06T10:54:05;4.87;;;3.00;;
41343;SDS011;27089;50.022;7.604;2024-01-06T10:56:36;4.70;;;2.67;;
41343;SDS011;27089;50.022;7.604;2024-01-06T10:59:05;3.10;;;2.47;;
41343;SDS011;27089;50.022;7.604;2024-01-06T11:01:33;3.37;;;2.80;;
41343;SDS011;27089;50.022;7.604;2024-01-06T11:04:02;3.80;;;2.73;;
41343;SDS011;27089;50.022;7.604;2024-01-06T11:06:31;4.70;;;2.70;;
41343;SDS011;27089;50.022;7.604;2024-01-06T11:08:59;3.23;;;2.40;;
41343;SDS011;27089;50.022;7.604;2024-01-06T11:11:33;3.77;;;2.40;;
41343;SDS011;27089;50.022;7.604;2024-01-06T11:14:19;3.10;;;1.77;;
41343;SDS011;27089;50.022;7.604;2024-01-06T11:16:47;3.03;;;1.90;;
41343;SDS011;27089;50.022;7.604;2024-01-06T11:22:19;2.33;;;1.87;;
41343;SDS011;27089;50.022;7.604;2024-01-06T11:24:52;6.73;;;4.20;;
41343;SDS011;27089;50.022;7.604;2024-01-06T11:27:22;2.87;;;1.83;;
41343;SDS011;27089;50.022;7.604;2024-01-06T11:29:53;2.27;;;1.77;;
41343;SDS011;27089;50.022;7.604;2024-01-06T11:32:25;1.80;;;1.60;;
41343;SDS011;27089;50.022;7.604;2024-01-06T11:34:54;2.17;;;1.90;;
41343;SDS011;27089;50.022;7.604;2024-01-06T11:37:23;2.73;;;2.30;;
41343;SDS011;27089;50.022;7.604;2024-01-06T11:39:52;3.70;;;2.67;;
41343;SDS011;27089;50.022;7.604;2024-01-06T11:42:19;6.00;;;3.90;;
41343;SDS011;27089;50.022;7.604;2024-01-06T11:44:49;12.63;;;8.07;;
41343;SDS011;27089;50.022;7.604;2024-01-06T11:47:18;8.83;;;5.37;;
41343;SDS011;27089;50.022;7.604;2024-01-06T11:49:48;8.27;;;5.63;;
41343;SDS011;27089;50.022;7.604;2024-01-06T11:52:24;7.93;;;4.77;;
41343;SDS011;27089;50.022;7.604;2024-01-06T11:54:52;12.57;;;7.10;;
41343;SDS011;27089;50.022;7.604;2024-01-06T11:57:20;16.90;;;9.20;;
41343;SDS011;27089;50.022;7.604;2024-01-06T11:59:47;6.90;;;5.00;;
41343;SDS011;27089;50.022;7.604;2024-01-06T12:02:16;1.73;;;1.30;;
41343;SDS011;27089;50.022;7.604;2024-01-06T12:04:48;3.00;;;1.90;;
41343;SDS011;27089;50.022;7.604;2024-01-06T12:07:16;1.10;;;1.00;;
41343;SDS011;27089;50.022;7.604;2024-01-06T12:09:45;1.50;;;1.10;;
41343;SDS011;27089;50.022;7.604;2024-01-06T12:12:15;1.43;;;1.27;;
41343;SDS011;27089;50.022;7.604;2024-01-06T12:14:43;1.57;;;1.47;;
41343;SDS011;27089;50.022;7.604;2024-01-06T12:17:11;2.20;;;1.80;;
41343;SDS011;27089;50.022;7.604;2024-01-06T12:19:40;2.43;;;1.87;;
41343;SDS011;27089;50.022;7.604;2024-01-06T12:22:09;2.97;;;2.40;;
41343;SDS011;27089;50.022;7.604;2024-01-06T12:24:38;3.03;;;2.67;;
41343;SDS011;27089;50.022;7.604;2024-01-06T12:27:06;3.57;;;2.80;;
41343;SDS011;27089;50.022;7.604;2024-01-06T12:29:37;4.07;;;3.10;;
41343;SDS011;27089;50.022;7.604;2024-01-06T12:32:05;4.60;;;3.47;;
41343;SDS011;27089;50.022;7.604;2024-01-06T12:34:33;4.30;;;3.33;;
41343;SDS011;27089;50.022;7.604;2024-01-06T12:37:01;4.03;;;3.57;;
41343;SDS011;27089;50.022;7.604;2024-01-06T12:39:29;4.43;;;3.07;;
41343;SDS011;27089;50.022;7.604;2024-01-06T12:41:57;6.20;;;4.37;;
41343;SDS011;27089;50.022;7.604;2024-01-06T12:44:25;5.97;;;3.87;;
41343;SDS011;27089;50.022;7.604;2024-01-06T12:46:54;4.30;;;2.77;;
41343;SDS011;27089;50.022;7.604;2024-01-06T12:49:21;4.10;;;2.80;;
41343;SDS011;27089;50.022;7.604;2024-01-06T12:51:49;4.20;;;2.97;;
41343;SDS011;27089;50.022;7.604;2024-01-06T12:54:17;4.73;;;3.20;;
41343;SDS011;27089;50.022;7.604;2024-01-06T12:56:45;3.97;;;2.30;;
41343;SDS011;27089;50.022;7.604;2024-01-06T12:59:13;3.47;;;2.70;;
41343;SDS011;27089;50.022;7.604;2024-01-06T13:01:40;4.70;;;3.03;;
41343;SDS011;27089;50.022;7.604;2024-01-06T13:04:08;5.67;;;3.10;;
41343;SDS011;27089;50.022;7.604;2024-01-06T13:06:35;5.30;;;3.40;;
41343;SDS011;27089;50.022;7.604;2024-01-06T13:09:02;6.00;;;3.80;;
41343;SDS011;27089;50.022;7.604;2024-01-06T13:11:33;5.00;;;3.50;;
41343;SDS011;27089;50.022;7.604;2024-01-06T13:14:01;5.00;;;3.60;;
41343;SDS011;27089;50.022;7.604;2024-01-06T13:16:28;4.10;;;2.73;;
41343;SDS011;27089;50.022;7.604;2024-01-06T13:18:55;3.27;;;2.63;;
41343;SDS011;27089;50.022;7.604;2024-01-06T13:21:22;2.80;;;2.07;;
41343;SDS011;27089;50.022;7.604;2024-01-06T13:23:49;2.67;;;2.10;;
41343;SDS011;27089;50.022;7.604;2024-01-06T13:26:16;3.70;;;2.23;;
41343;SDS011;27089;50.022;7.604;2024-01-06T13:28:45;4.90;;;2.83;;
41343;SDS011;27089;50.022;7.604;2024-01-06T13:31:12;3.57;;;2.50;;
41343;SDS011;27089;50.022;7.604;2024-01-06T13:33:40;3.93;;;2.40;;
41343;SDS011;27089;50.022;7.604;2024-01-06T13:36:07;3.30;;;2.63;;
41343;SDS011;27089;50.022;7.604;2024-01-06T13:38:34;3.77;;;2.27;;
41343;SDS011;27089;50.022;7.604;2024-01-06T13:41:01;3.53;;;2.23;;
41343;SDS011;27089;50.022;7.604;2024-01-06T13:43:29;6.17;;;4.37;;
41343;SDS011;27089;50.022;7.604;2024-01-06T13:45:58;4.37;;;2.70;;
41343;SDS011;27089;50.022;7.604;2024-01-06T13:48:26;4.07;;;2.70;;
41343;SDS011;27089;50.022;7.604;2024-01-06T13:50:53;3.93;;;2.23;;
41343;SDS011;27089;50.022;7.604;2024-01-06T13:53:21;3.63;;;2.83;;
41343;SDS011;27089;50.022;7.604;2024-01-06T13:55:48;5.40;;;3.37;;
41343;SDS011;27089;50.022;7.604;2024-01-06T13:58:15;7.10;;;5.17;;
41343;SDS011;27089;50.022;7.604;2024-01-06T14:00:42;5.30;;;3.83;;
41343;SDS011;27089;50.022;7.604;2024-01-06T14:03:10;5.73;;;4.10;;
41343;SDS011;27089;50.022;7.604;2024-01-06T14:05:38;3.70;;;2.43;;
41343;SDS011;27089;50.022;7.604;2024-01-06T14:08:05;5.33;;;3.57;;
41343;SDS011;27089;50.022;7.604;2024-01-06T14:10:32;5.10;;;2.40;;
41343;SDS011;27089;50.022;7.604;2024-01-06T14:13:00;4.07;;;2.73;;
41343;SDS011;27089;50.022;7.604;2024-01-06T14:15:26;4.40;;;2.50;;
41343;SDS011;27089;50.022;7.604;2024-01-06T14:17:56;3.50;;;2.13;;
41343;SDS011;27089;50.022;7.604;2024-01-06T14:20:26;3.40;;;2.20;;
41343;SDS011;27089;50.022;7.604;2024-01-06T14:22:54;4.80;;;2.53;;
41343;SDS011;27089;50.022;7.604;2024-01-06T14:25:21;4.60;;;2.80;;
41343;SDS011;27089;50.022;7.604;2024-01-06T14:27:48;4.70;;;2.67;;
41343;SDS011;27089;50.022;7.604;2024-01-06T14:30:15;2.97;;;2.33;;
41343;SDS011;27089;50.022;7.604;2024-01-06T14:32:42;3.00;;;2.37;;
41343;SDS011;27089;50.022;7.604;2024-01-06T14:35:09;3.30;;;2.20;;
41343;SDS011;27089;50.022;7.604;2024-01-06T14:37:38;4.33;;;2.60;;
41343;SDS011;27089;50.022;7.604;2024-01-06T14:40:06;4.37;;;3.07;;
41343;SDS011;27089;50.022;7.604;2024-01-06T14:42:34;9.37;;;6.60;;
41343;SDS011;27089;50.022;7.604;2024-01-06T14:45:01;4.40;;;2.53;;
41343;SDS011;27089;50.022;7.604;2024-01-06T14:47:28;3.70;;;2.83;;
41343;SDS011;27089;50.022;7.604;2024-01-06T14:49:57;4.53;;;3.43;;